sensor_id;sensor_type;location;lat;lon;timestamp;P1;durP1;ratioP1;P2;durP2;ratioP2
71236;SDS011;58984;51.960;5.582;2024-03-25T00:02:12;12.05;;;4.20;;
71236;SDS011;58984;51.960;5.582;2024-03-25T00:04:38;10.30;;;4.18;;
71236;SDS011;58984;51.960;5.582;2024-03-25T00:07:04;8.95;;;4.63;;
71236;SDS011;58984;51.960;5.582;2024-03-25T00:09:30;10.38;;;4.60;;
71236;SDS011;58984;51.960;5.582;2024-03-25T00:11:55;10.35;;;4.40;;
71236;SDS011;58984;51.960;5.582;2024-03-25T00:14:21;10.80;;;4.50;;
71236;SDS011;58984;51.960;5.582;2024-03-25T00:16:47;10.57;;;4.80;;
71236;SDS011;58984;51.960;5.582;2024-03-25T00:19:13;14.25;;;5.00;;
71236;SDS011;58984;51.960;5.582;2024-03-25T00:21:39;10.93;;;5.05;;
71236;SDS011;58984;51.960;5.582;2024-03-25T00:24:05;11.75;;;5.38;;
71236;SDS011;58984;51.960;5.582;2024-03-25T00:26:31;13.68;;;5.38;;
71236;SDS011;58984;51.960;5.582;2024-03-25T00:28:56;13.43;;;5.28;;
71236;SDS011;58984;51.960;5.582;2024-03-25T00:31:22;8.73;;;4.57;;
71236;SDS011;58984;51.960;5.582;2024-03-25T00:33:47;20.25;;;5.18;;
71236;SDS011;58984;51.960;5.582;2024-03-25T00:36:13;12.40;;;5.00;;
71236;SDS011;58984;51.960;5.582;2024-03-25T00:38:39;17.95;;;5.65;;
71236;SDS011;58984;51.960;5.582;2024-03-25T00:41:04;15.38;;;5.63;;
71236;SDS011;58984;51.960;5.582;2024-03-25T00:43:30;13.02;;;5.40;;
71236;SDS011;58984;51.960;5.582;2024-03-25T00:45:56;14.75;;;5.50;;
71236;SDS011;58984;51.960;5.582;2024-03-25T00:48:22;15.70;;;5.63;;
71236;SDS011;58984;51.960;5.582;2024-03-25T00:50:48;12.65;;;4.97;;
71236;SDS011;58984;51.960;5.582;2024-03-25T00:53:14;11.13;;;5.88;;
71236;SDS011;58984;51.960;5.582;2024-03-25T00:55:39;18.27;;;6.40;;
71236;SDS011;58984;51.960;5.582;2024-03-25T00:58:05;11.68;;;6.20;;
71236;SDS011;58984;51.960;5.582;2024-03-25T01:00:31;18.48;;;6.38;;
71236;SDS011;58984;51.960;5.582;2024-03-25T01:02:57;14.15;;;5.28;;
71236;SDS011;58984;51.960;5.582;2024-03-25T01:05:22;14.85;;;5.65;;
71236;SDS011;58984;51.960;5.582;2024-03-25T01:07:48;12.52;;;6.43;;
71236;SDS011;58984;51.960;5.582;2024-03-25T01:10:14;14.30;;;5.65;;
71236;SDS011;58984;51.960;5.582;2024-03-25T01:12:41;16.27;;;6.30;;
71236;SDS011;58984;51.960;5.582;2024-03-25T01:15:07;15.13;;;6.25;;
71236;SDS011;58984;51.960;5.582;2024-03-25T01:17:35;11.60;;;5.35;;
71236;SDS011;58984;51.960;5.582;2024-03-25T01:20:01;13.80;;;5.90;;
71236;SDS011;58984;51.960;5.582;2024-03-25T01:22:27;12.05;;;5.55;;
71236;SDS011;58984;51.960;5.582;2024-03-25T01:24:52;18.75;;;5.43;;
71236;SDS011;58984;51.960;5.582;2024-03-25T01:27:18;12.63;;;6.10;;
71236;SDS011;58984;51.960;5.582;2024-03-25T01:29:44;18.25;;;6.28;;
71236;SDS011;58984;51.960;5.582;2024-03-25T01:32:10;11.73;;;6.13;;
71236;SDS011;58984;51.960;5.582;2024-03-25T01:34:35;12.85;;;5.95;;
71236;SDS011;58984;51.960;5.582;2024-03-25T01:37:01;15.18;;;5.78;;
71236;SDS011;58984;51.960;5.582;2024-03-25T01:39:26;12.50;;;5.47;;
71236;SDS011;58984;51.960;5.582;2024-03-25T01:41:52;17.13;;;6.70;;
71236;SDS011;58984;51.960;5.582;2024-03-25T01:44:18;14.93;;;5.70;;
71236;SDS011;58984;51.960;5.582;2024-03-25T01:46:43;20.52;;;6.32;;
71236;SDS011;58984;51.960;5.582;2024-03-25T01:49:09;21.30;;;6.82;;
71236;SDS011;58984;51.960;5.582;2024-03-25T01:51:36;15.95;;;5.95;;
71236;SDS011;58984;51.960;5.582;2024-03-25T01:54:04;17.77;;;6.10;;
71236;SDS011;58984;51.960;5.582;2024-03-25T01:56:31;17.58;;;6.45;;
71236;SDS011;58984;51.960;5.582;2024-03-25T01:58:58;13.70;;;6.00;;
71236;SDS011;58984;51.960;5.582;2024-03-25T02:01:25;18.45;;;6.00;;
71236;SDS011;58984;51.960;5.582;2024-03-25T02:03:52;27.80;;;7.18;;
71236;SDS011;58984;51.960;5.582;2024-03-25T02:06:19;15.70;;;6.47;;
71236;SDS011;58984;51.960;5.582;2024-03-25T02:08:46;16.80;;;6.40;;
71236;SDS011;58984;51.960;5.582;2024-03-25T02:11:14;15.13;;;5.75;;
71236;SDS011;58984;51.960;5.582;2024-03-25T02:13:40;15.70;;;6.07;;
71236;SDS011;58984;51.960;5.582;2024-03-25T02:16:06;21.10;;;6.57;;
71236;SDS011;58984;51.960;5.582;2024-03-25T02:18:32;14.20;;;6.60;;
71236;SDS011;58984;51.960;5.582;2024-03-25T02:20:58;12.95;;;6.03;;
71236;SDS011;58984;51.960;5.582;2024-03-25T02:23:25;14.52;;;5.93;;
71236;SDS011;58984;51.960;5.582;2024-03-25T02:25:51;16.50;;;6.05;;
71236;SDS011;58984;51.960;5.582;2024-03-25T02:28:17;14.80;;;6.18;;
71236;SDS011;58984;51.960;5.582;2024-03-25T02:30:44;17.00;;;6.70;;
71236;SDS011;58984;51.960;5.582;2024-03-25T02:33:10;15.00;;;5.07;;
71236;SDS011;58984;51.960;5.582;2024-03-25T02:35:36;17.08;;;5.60;;
71236;SDS011;58984;51.960;5.582;2024-03-25T02:38:04;11.63;;;5.07;;
71236;SDS011;58984;51.960;5.582;2024-03-25T02:40:30;15.65;;;5.93;;
71236;SDS011;58984;51.960;5.582;2024-03-25T02:42:57;18.10;;;6.07;;
71236;SDS011;58984;51.960;5.582;2024-03-25T02:45:23;11.57;;;5.45;;
71236;SDS011;58984;51.960;5.582;2024-03-25T02:47:49;17.42;;;5.53;;
71236;SDS011;58984;51.960;5.582;2024-03-25T02:50:15;15.32;;;6.03;;
71236;SDS011;58984;51.960;5.582;2024-03-25T02:52:41;18.95;;;6.20;;
71236;SDS011;58984;51.960;5.582;2024-03-25T02:55:07;12.07;;;4.72;;
71236;SDS011;58984;51.960;5.582;2024-03-25T02:57:32;15.52;;;5.95;;
71236;SDS011;58984;51.960;5.582;2024-03-25T02:59:58;10.50;;;5.22;;
71236;SDS011;58984;51.960;5.582;2024-03-25T03:02:24;14.60;;;5.40;;
71236;SDS011;58984;51.960;5.582;2024-03-25T03:04:49;10.45;;;4.57;;
71236;SDS011;58984;51.960;5.582;2024-03-25T03:07:15;16.63;;;5.70;;
71236;SDS011;58984;51.960;5.582;2024-03-25T03:09:41;18.95;;;5.53;;
71236;SDS011;58984;51.960;5.582;2024-03-25T03:12:07;19.42;;;5.90;;
71236;SDS011;58984;51.960;5.582;2024-03-25T03:14:32;13.65;;;5.68;;
71236;SDS011;58984;51.960;5.582;2024-03-25T03:16:58;14.93;;;5.90;;
71236;SDS011;58984;51.960;5.582;2024-03-25T03:19:27;19.42;;;6.18;;
71236;SDS011;58984;51.960;5.582;2024-03-25T03:21:54;16.67;;;6.22;;
71236;SDS011;58984;51.960;5.582;2024-03-25T03:24:19;10.13;;;5.30;;
71236;SDS011;58984;51.960;5.582;2024-03-25T03:26:45;17.58;;;5.90;;
71236;SDS011;58984;51.960;5.582;2024-03-25T03:29:11;13.30;;;5.55;;
71236;SDS011;58984;51.960;5.582;2024-03-25T03:31:37;15.63;;;5.55;;
71236;SDS011;58984;51.960;5.582;2024-03-25T03:34:02;18.55;;;5.80;;
71236;SDS011;58984;51.960;5.582;2024-03-25T03:36:28;11.13;;;5.10;;
71236;SDS011;58984;51.960;5.582;2024-03-25T03:38:54;13.32;;;5.45;;
71236;SDS011;58984;51.960;5.582;2024-03-25T03:41:20;17.13;;;5.22;;
71236;SDS011;58984;51.960;5.582;2024-03-25T03:43:46;11.43;;;5.30;;
71236;SDS011;58984;51.960;5.582;2024-03-25T03:46:11;11.82;;;5.32;;
71236;SDS011;58984;51.960;5.582;2024-03-25T03:48:37;10.60;;;5.32;;
71236;SDS011;58984;51.960;5.582;2024-03-25T03:51:07;15.23;;;5.65;;
71236;SDS011;58984;51.960;5.582;2024-03-25T03:53:33;12.98;;;5.80;;
71236;SDS011;58984;51.960;5.582;2024-03-25T03:56:02;18.00;;;6.47;;
71236;SDS011;58984;51.960;5.582;2024-03-25T03:58:30;11.70;;;5.53;;
71236;SDS011;58984;51.960;5.582;2024-03-25T04:00:56;14.63;;;5.72;;
71236;SDS011;58984;51.960;5.582;2024-03-25T04:03:21;9.95;;;4.97;;
71236;SDS011;58984;51.960;5.582;2024-03-25T04:05:47;13.23;;;6.15;;
71236;SDS011;58984;51.960;5.582;2024-03-25T04:08:13;16.60;;;5.60;;
71236;SDS011;58984;51.960;5.582;2024-03-25T04:10:39;12.05;;;5.68;;
71236;SDS011;58984;51.960;5.582;2024-03-25T04:13:05;10.85;;;5.30;;
71236;SDS011;58984;51.960;5.582;2024-03-25T04:15:35;11.10;;;5.35;;
71236;SDS011;58984;51.960;5.582;2024-03-25T04:18:01;14.18;;;5.00;;
71236;SDS011;58984;51.960;5.582;2024-03-25T04:20:27;11.18;;;5.70;;
71236;SDS011;58984;51.960;5.582;2024-03-25T04:22:56;11.50;;;6.05;;
71236;SDS011;58984;51.960;5.582;2024-03-25T04:25:22;11.90;;;5.00;;
71236;SDS011;58984;51.960;5.582;2024-03-25T04:27:48;20.60;;;6.18;;
71236;SDS011;58984;51.960;5.582;2024-03-25T04:30:14;15.02;;;5.57;;
71236;SDS011;58984;51.960;5.582;2024-03-25T04:32:39;8.93;;;5.05;;
71236;SDS011;58984;51.960;5.582;2024-03-25T04:35:06;12.75;;;5.38;;
71236;SDS011;58984;51.960;5.582;2024-03-25T04:37:32;16.25;;;5.72;;
71236;SDS011;58984;51.960;5.582;2024-03-25T04:39:59;15.73;;;5.90;;
71236;SDS011;58984;51.960;5.582;2024-03-25T04:42:25;14.52;;;6.18;;
71236;SDS011;58984;51.960;5.582;2024-03-25T04:44:51;17.02;;;5.95;;
71236;SDS011;58984;51.960;5.582;2024-03-25T04:47:17;10.82;;;4.93;;
71236;SDS011;58984;51.960;5.582;2024-03-25T04:49:43;11.07;;;5.10;;
71236;SDS011;58984;51.960;5.582;2024-03-25T04:52:09;14.85;;;5.82;;
71236;SDS011;58984;51.960;5.582;2024-03-25T04:54:38;12.18;;;5.43;;
71236;SDS011;58984;51.960;5.582;2024-03-25T04:57:04;17.30;;;6.53;;
71236;SDS011;58984;51.960;5.582;2024-03-25T04:59:31;11.55;;;5.47;;
71236;SDS011;58984;51.960;5.582;2024-03-25T05:01:57;16.13;;;6.03;;
71236;SDS011;58984;51.960;5.582;2024-03-25T05:04:23;12.40;;;7.18;;
71236;SDS011;58984;51.960;5.582;2024-03-25T05:06:49;14.15;;;6.05;;
71236;SDS011;58984;51.960;5.582;2024-03-25T05:09:15;10.07;;;6.13;;
71236;SDS011;58984;51.960;5.582;2024-03-25T05:11:41;17.95;;;6.55;;
71236;SDS011;58984;51.960;5.582;2024-03-25T05:14:07;15.35;;;6.22;;
71236;SDS011;58984;51.960;5.582;2024-03-25T05:16:33;14.75;;;6.13;;
71236;SDS011;58984;51.960;5.582;2024-03-25T05:18:58;13.88;;;6.20;;
71236;SDS011;58984;51.960;5.582;2024-03-25T05:21:24;13.35;;;6.55;;
71236;SDS011;58984;51.960;5.582;2024-03-25T05:23:50;25.38;;;6.75;;
71236;SDS011;58984;51.960;5.582;2024-03-25T05:26:15;16.92;;;7.22;;
71236;SDS011;58984;51.960;5.582;2024-03-25T05:28:41;15.05;;;6.45;;
71236;SDS011;58984;51.960;5.582;2024-03-25T05:31:07;13.43;;;6.05;;
71236;SDS011;58984;51.960;5.582;2024-03-25T05:33:33;14.18;;;7.38;;
71236;SDS011;58984;51.960;5.582;2024-03-25T05:35:59;17.80;;;6.90;;
71236;SDS011;58984;51.960;5.582;2024-03-25T05:38:26;21.63;;;7.65;;
71236;SDS011;58984;51.960;5.582;2024-03-25T05:40:52;19.73;;;7.50;;
71236;SDS011;58984;51.960;5.582;2024-03-25T05:43:18;15.13;;;7.25;;
71236;SDS011;58984;51.960;5.582;2024-03-25T05:45:54;14.48;;;7.15;;
71236;SDS011;58984;51.960;5.582;2024-03-25T05:48:21;14.43;;;6.88;;
71236;SDS011;58984;51.960;5.582;2024-03-25T05:51:01;17.92;;;7.50;;
71236;SDS011;58984;51.960;5.582;2024-03-25T05:53:30;17.38;;;7.88;;
71236;SDS011;58984;51.960;5.582;2024-03-25T05:55:56;19.95;;;7.28;;
71236;SDS011;58984;51.960;5.582;2024-03-25T05:58:24;19.40;;;7.30;;
71236;SDS011;58984;51.960;5.582;2024-03-25T06:00:49;11.98;;;6.75;;
71236;SDS011;58984;51.960;5.582;2024-03-25T06:03:16;15.10;;;6.97;;
71236;SDS011;58984;51.960;5.582;2024-03-25T06:05:44;15.05;;;6.78;;
71236;SDS011;58984;51.960;5.582;2024-03-25T06:08:10;17.95;;;7.28;;
71236;SDS011;58984;51.960;5.582;2024-03-25T06:10:49;15.88;;;6.85;;
71236;SDS011;58984;51.960;5.582;2024-03-25T06:13:16;14.90;;;6.22;;
71236;SDS011;58984;51.960;5.582;2024-03-25T06:15:42;18.92;;;7.13;;
71236;SDS011;58984;51.960;5.582;2024-03-25T06:18:07;16.80;;;6.72;;
71236;SDS011;58984;51.960;5.582;2024-03-25T06:20:33;14.60;;;6.75;;
71236;SDS011;58984;51.960;5.582;2024-03-25T06:22:58;14.48;;;6.97;;
71236;SDS011;58984;51.960;5.582;2024-03-25T06:25:24;15.25;;;7.05;;
71236;SDS011;58984;51.960;5.582;2024-03-25T06:27:50;17.20;;;7.70;;
71236;SDS011;58984;51.960;5.582;2024-03-25T06:30:15;13.93;;;7.38;;
71236;SDS011;58984;51.960;5.582;2024-03-25T06:33:00;14.00;;;7.18;;
71236;SDS011;58984;51.960;5.582;2024-03-25T06:35:44;12.05;;;6.75;;
71236;SDS011;58984;51.960;5.582;2024-03-25T06:38:13;16.65;;;7.00;;
71236;SDS011;58984;51.960;5.582;2024-03-25T06:40:38;14.05;;;6.70;;
71236;SDS011;58984;51.960;5.582;2024-03-25T06:43:04;21.58;;;7.60;;
71236;SDS011;58984;51.960;5.582;2024-03-25T06:45:30;11.40;;;6.70;;
71236;SDS011;58984;51.960;5.582;2024-03-25T06:47:56;16.98;;;7.85;;
71236;SDS011;58984;51.960;5.582;2024-03-25T06:50:22;15.00;;;6.75;;
71236;SDS011;58984;51.960;5.582;2024-03-25T06:52:48;19.40;;;7.43;;
71236;SDS011;58984;51.960;5.582;2024-03-25T06:55:14;21.73;;;7.95;;
71236;SDS011;58984;51.960;5.582;2024-03-25T06:57:40;13.40;;;7.55;;
71236;SDS011;58984;51.960;5.582;2024-03-25T07:00:05;15.23;;;7.70;;
71236;SDS011;58984;51.960;5.582;2024-03-25T07:02:36;18.73;;;7.65;;
71236;SDS011;58984;51.960;5.582;2024-03-25T07:05:01;17.27;;;7.45;;
71236;SDS011;58984;51.960;5.582;2024-03-25T07:07:27;13.35;;;6.45;;
71236;SDS011;58984;51.960;5.582;2024-03-25T07:09:53;15.02;;;7.00;;
71236;SDS011;58984;51.960;5.582;2024-03-25T07:12:19;17.80;;;7.68;;
71236;SDS011;58984;51.960;5.582;2024-03-25T07:14:45;16.05;;;7.35;;
71236;SDS011;58984;51.960;5.582;2024-03-25T07:17:11;14.45;;;7.05;;
71236;SDS011;58984;51.960;5.582;2024-03-25T07:19:36;12.38;;;6.75;;
71236;SDS011;58984;51.960;5.582;2024-03-25T07:22:02;15.02;;;7.20;;
71236;SDS011;58984;51.960;5.582;2024-03-25T07:24:28;23.33;;;7.32;;
71236;SDS011;58984;51.960;5.582;2024-03-25T07:26:53;18.65;;;8.48;;
71236;SDS011;58984;51.960;5.582;2024-03-25T07:29:19;15.55;;;7.90;;
71236;SDS011;58984;51.960;5.582;2024-03-25T07:31:44;15.80;;;6.88;;
71236;SDS011;58984;51.960;5.582;2024-03-25T07:34:10;15.80;;;7.35;;
71236;SDS011;58984;51.960;5.582;2024-03-25T07:36:37;15.13;;;6.40;;
71236;SDS011;58984;51.960;5.582;2024-03-25T07:39:03;19.13;;;7.57;;
71236;SDS011;58984;51.960;5.582;2024-03-25T07:41:31;11.63;;;6.53;;
71236;SDS011;58984;51.960;5.582;2024-03-25T07:43:56;16.00;;;6.60;;
71236;SDS011;58984;51.960;5.582;2024-03-25T07:46:22;13.02;;;7.07;;
71236;SDS011;58984;51.960;5.582;2024-03-25T07:48:48;14.85;;;7.20;;
71236;SDS011;58984;51.960;5.582;2024-03-25T07:51:13;24.55;;;7.82;;
71236;SDS011;58984;51.960;5.582;2024-03-25T07:53:39;21.70;;;7.97;;
71236;SDS011;58984;51.960;5.582;2024-03-25T07:56:05;14.77;;;8.00;;
71236;SDS011;58984;51.960;5.582;2024-03-25T07:58:31;14.77;;;6.95;;
71236;SDS011;58984;51.960;5.582;2024-03-25T08:00:56;16.55;;;7.57;;
71236;SDS011;58984;51.960;5.582;2024-03-25T08:03:22;20.05;;;7.53;;
71236;SDS011;58984;51.960;5.582;2024-03-25T08:05:50;11.98;;;7.57;;
71236;SDS011;58984;51.960;5.582;2024-03-25T08:08:15;17.50;;;7.60;;
71236;SDS011;58984;51.960;5.582;2024-03-25T08:10:41;15.40;;;7.40;;
71236;SDS011;58984;51.960;5.582;2024-03-25T08:13:07;17.85;;;7.40;;
71236;SDS011;58984;51.960;5.582;2024-03-25T08:15:32;16.92;;;7.65;;
71236;SDS011;58984;51.960;5.582;2024-03-25T08:17:58;13.00;;;7.63;;
71236;SDS011;58984;51.960;5.582;2024-03-25T08:20:23;12.45;;;6.43;;
71236;SDS011;58984;51.960;5.582;2024-03-25T08:22:49;12.82;;;7.15;;
71236;SDS011;58984;51.960;5.582;2024-03-25T08:25:15;17.50;;;7.53;;
71236;SDS011;58984;51.960;5.582;2024-03-25T08:27:41;17.38;;;7.00;;
71236;SDS011;58984;51.960;5.582;2024-03-25T08:30:07;18.75;;;7.43;;
71236;SDS011;58984;51.960;5.582;2024-03-25T08:32:33;14.70;;;7.00;;
71236;SDS011;58984;51.960;5.582;2024-03-25T08:34:59;15.48;;;7.20;;
71236;SDS011;58984;51.960;5.582;2024-03-25T08:37:24;12.68;;;6.45;;
71236;SDS011;58984;51.960;5.582;2024-03-25T08:39:50;16.52;;;7.38;;
71236;SDS011;58984;51.960;5.582;2024-03-25T08:42:16;12.70;;;6.55;;
71236;SDS011;58984;51.960;5.582;2024-03-25T08:44:41;11.98;;;6.90;;
71236;SDS011;58984;51.960;5.582;2024-03-25T08:47:07;11.57;;;6.80;;
71236;SDS011;58984;51.960;5.582;2024-03-25T08:49:32;15.63;;;7.25;;
71236;SDS011;58984;51.960;5.582;2024-03-25T08:51:58;15.43;;;6.22;;
71236;SDS011;58984;51.960;5.582;2024-03-25T08:54:24;15.43;;;7.07;;
71236;SDS011;58984;51.960;5.582;2024-03-25T08:56:49;15.27;;;6.53;;
71236;SDS011;58984;51.960;5.582;2024-03-25T08:59:15;15.32;;;6.38;;
71236;SDS011;58984;51.960;5.582;2024-03-25T09:01:40;14.93;;;7.43;;
71236;SDS011;58984;51.960;5.582;2024-03-25T09:04:06;14.75;;;7.18;;
71236;SDS011;58984;51.960;5.582;2024-03-25T09:06:32;13.55;;;7.18;;
71236;SDS011;58984;51.960;5.582;2024-03-25T09:08:57;12.27;;;7.43;;
71236;SDS011;58984;51.960;5.582;2024-03-25T09:11:41;17.13;;;6.80;;
71236;SDS011;58984;51.960;5.582;2024-03-25T09:14:07;15.45;;;7.22;;
71236;SDS011;58984;51.960;5.582;2024-03-25T09:16:34;12.50;;;6.70;;
71236;SDS011;58984;51.960;5.582;2024-03-25T09:19:00;15.95;;;7.40;;
71236;SDS011;58984;51.960;5.582;2024-03-25T09:21:25;15.43;;;7.90;;
71236;SDS011;58984;51.960;5.582;2024-03-25T09:23:52;14.05;;;7.93;;
71236;SDS011;58984;51.960;5.582;2024-03-25T09:26:18;18.33;;;7.85;;
71236;SDS011;58984;51.960;5.582;2024-03-25T09:28:44;14.13;;;7.45;;
71236;SDS011;58984;51.960;5.582;2024-03-25T09:31:09;16.73;;;7.88;;
71236;SDS011;58984;51.960;5.582;2024-03-25T09:33:35;14.88;;;7.40;;
71236;SDS011;58984;51.960;5.582;2024-03-25T09:36:01;18.80;;;7.88;;
71236;SDS011;58984;51.960;5.582;2024-03-25T09:38:26;16.80;;;7.90;;
71236;SDS011;58984;51.960;5.582;2024-03-25T09:40:52;13.63;;;7.82;;
71236;SDS011;58984;51.960;5.582;2024-03-25T09:43:32;18.13;;;7.80;;
71236;SDS011;58984;51.960;5.582;2024-03-25T09:46:02;12.15;;;7.68;;
71236;SDS011;58984;51.960;5.582;2024-03-25T09:48:28;14.73;;;7.65;;
71236;SDS011;58984;51.960;5.582;2024-03-25T09:50:56;18.75;;;7.97;;
71236;SDS011;58984;51.960;5.582;2024-03-25T09:53:22;15.55;;;7.15;;
71236;SDS011;58984;51.960;5.582;2024-03-25T09:55:47;17.48;;;7.07;;
71236;SDS011;58984;51.960;5.582;2024-03-25T09:58:14;15.38;;;7.25;;
71236;SDS011;58984;51.960;5.582;2024-03-25T10:00:40;12.43;;;7.38;;
71236;SDS011;58984;51.960;5.582;2024-03-25T10:03:06;15.43;;;7.38;;
71236;SDS011;58984;51.960;5.582;2024-03-25T10:05:32;15.45;;;7.07;;
71236;SDS011;58984;51.960;5.582;2024-03-25T10:07:58;12.02;;;6.72;;
71236;SDS011;58984;51.960;5.582;2024-03-25T10:10:24;15.73;;;6.88;;
71236;SDS011;58984;51.960;5.582;2024-03-25T10:12:49;12.88;;;6.60;;
71236;SDS011;58984;51.960;5.582;2024-03-25T10:15:16;12.48;;;7.20;;
71236;SDS011;58984;51.960;5.582;2024-03-25T10:17:51;15.02;;;7.35;;
71236;SDS011;58984;51.960;5.582;2024-03-25T10:20:17;13.57;;;7.18;;
71236;SDS011;58984;51.960;5.582;2024-03-25T10:22:43;11.55;;;6.88;;
71236;SDS011;58984;51.960;5.582;2024-03-25T10:25:23;11.15;;;6.53;;
71236;SDS011;58984;51.960;5.582;2024-03-25T10:30:19;13.57;;;7.45;;
71236;SDS011;58984;51.960;5.582;2024-03-25T10:32:45;15.85;;;6.68;;
71236;SDS011;58984;51.960;5.582;2024-03-25T10:35:10;12.05;;;7.32;;
71236;SDS011;58984;51.960;5.582;2024-03-25T10:37:38;14.15;;;7.60;;
71236;SDS011;58984;51.960;5.582;2024-03-25T10:40:04;10.90;;;7.65;;
71236;SDS011;58984;51.960;5.582;2024-03-25T10:42:32;10.82;;;7.65;;
71236;SDS011;58984;51.960;5.582;2024-03-25T10:45:00;13.82;;;7.95;;
71236;SDS011;58984;51.960;5.582;2024-03-25T10:47:28;14.50;;;8.40;;
71236;SDS011;58984;51.960;5.582;2024-03-25T10:52:24;14.50;;;7.93;;
71236;SDS011;58984;51.960;5.582;2024-03-25T10:54:51;10.73;;;7.65;;
71236;SDS011;58984;51.960;5.582;2024-03-25T10:57:19;13.98;;;8.00;;
71236;SDS011;58984;51.960;5.582;2024-03-25T10:59:46;10.82;;;7.38;;
71236;SDS011;58984;51.960;5.582;2024-03-25T11:02:12;14.98;;;8.25;;
71236;SDS011;58984;51.960;5.582;2024-03-25T11:04:39;15.02;;;8.00;;
71236;SDS011;58984;51.960;5.582;2024-03-25T11:07:08;13.30;;;8.70;;
71236;SDS011;58984;51.960;5.582;2024-03-25T11:09:38;12.70;;;8.13;;
71236;SDS011;58984;51.960;5.582;2024-03-25T11:12:04;14.32;;;8.40;;
71236;SDS011;58984;51.960;5.582;2024-03-25T11:14:31;17.60;;;8.90;;
71236;SDS011;58984;51.960;5.582;2024-03-25T11:16:57;15.55;;;9.18;;
71236;SDS011;58984;51.960;5.582;2024-03-25T11:19:27;11.00;;;7.45;;
71236;SDS011;58984;51.960;5.582;2024-03-25T11:21:54;11.27;;;7.90;;
71236;SDS011;58984;51.960;5.582;2024-03-25T11:24:32;18.40;;;9.00;;
71236;SDS011;58984;51.960;5.582;2024-03-25T11:27:01;15.68;;;8.43;;
71236;SDS011;58984;51.960;5.582;2024-03-25T11:29:27;13.80;;;8.43;;
71236;SDS011;58984;51.960;5.582;2024-03-25T11:31:53;13.18;;;8.25;;
71236;SDS011;58984;51.960;5.582;2024-03-25T11:34:19;12.88;;;8.05;;
71236;SDS011;58984;51.960;5.582;2024-03-25T11:36:45;14.60;;;8.75;;
71236;SDS011;58984;51.960;5.582;2024-03-25T11:39:14;13.48;;;8.00;;
71236;SDS011;58984;51.960;5.582;2024-03-25T11:41:42;32.45;;;9.13;;
71236;SDS011;58984;51.960;5.582;2024-03-25T11:44:08;19.58;;;7.95;;
71236;SDS011;58984;51.960;5.582;2024-03-25T11:46:38;17.25;;;8.43;;
71236;SDS011;58984;51.960;5.582;2024-03-25T11:49:07;13.90;;;7.90;;
71236;SDS011;58984;51.960;5.582;2024-03-25T11:51:37;13.07;;;7.90;;
71236;SDS011;58984;51.960;5.582;2024-03-25T11:54:06;12.13;;;7.07;;
71236;SDS011;58984;51.960;5.582;2024-03-25T11:56:35;11.80;;;7.28;;
71236;SDS011;58984;51.960;5.582;2024-03-25T11:59:02;18.10;;;8.35;;
71236;SDS011;58984;51.960;5.582;2024-03-25T12:01:28;23.50;;;7.95;;
71236;SDS011;58984;51.960;5.582;2024-03-25T12:03:55;19.25;;;7.93;;
71236;SDS011;58984;51.960;5.582;2024-03-25T12:06:21;17.50;;;7.70;;
71236;SDS011;58984;51.960;5.582;2024-03-25T12:08:47;15.52;;;7.82;;
71236;SDS011;58984;51.960;5.582;2024-03-25T12:11:35;14.27;;;7.13;;
71236;SDS011;58984;51.960;5.582;2024-03-25T12:14:01;14.98;;;7.35;;
71236;SDS011;58984;51.960;5.582;2024-03-25T12:16:27;20.13;;;6.80;;
71236;SDS011;58984;51.960;5.582;2024-03-25T12:18:53;12.88;;;6.93;;
71236;SDS011;58984;51.960;5.582;2024-03-25T12:21:19;14.82;;;6.68;;
71236;SDS011;58984;51.960;5.582;2024-03-25T12:23:45;8.07;;;6.10;;
71236;SDS011;58984;51.960;5.582;2024-03-25T12:26:12;9.15;;;6.10;;
71236;SDS011;58984;51.960;5.582;2024-03-25T12:28:39;9.23;;;5.70;;
71236;SDS011;58984;51.960;5.582;2024-03-25T12:31:07;11.15;;;6.80;;
71236;SDS011;58984;51.960;5.582;2024-03-25T12:33:43;9.73;;;5.97;;
71236;SDS011;58984;51.960;5.582;2024-03-25T12:36:09;10.45;;;6.60;;
71236;SDS011;58984;51.960;5.582;2024-03-25T12:38:37;9.55;;;6.22;;
71236;SDS011;58984;51.960;5.582;2024-03-25T12:41:03;9.52;;;5.75;;
71236;SDS011;58984;51.960;5.582;2024-03-25T12:43:33;11.93;;;6.03;;
71236;SDS011;58984;51.960;5.582;2024-03-25T12:46:00;8.98;;;5.50;;
71236;SDS011;58984;51.960;5.582;2024-03-25T12:48:28;10.43;;;6.22;;
71236;SDS011;58984;51.960;5.582;2024-03-25T12:50:54;14.73;;;6.65;;
71236;SDS011;58984;51.960;5.582;2024-03-25T12:53:19;12.15;;;6.70;;
71236;SDS011;58984;51.960;5.582;2024-03-25T12:55:45;12.65;;;6.90;;
71236;SDS011;58984;51.960;5.582;2024-03-25T12:58:11;12.95;;;7.25;;
71236;SDS011;58984;51.960;5.582;2024-03-25T13:00:37;9.38;;;5.93;;
71236;SDS011;58984;51.960;5.582;2024-03-25T13:03:03;14.55;;;7.05;;
71236;SDS011;58984;51.960;5.582;2024-03-25T13:05:31;9.85;;;6.25;;
71236;SDS011;58984;51.960;5.582;2024-03-25T13:07:57;11.23;;;6.38;;
71236;SDS011;58984;51.960;5.582;2024-03-25T13:10:23;10.88;;;6.88;;
71236;SDS011;58984;51.960;5.582;2024-03-25T13:12:49;12.05;;;6.38;;
71236;SDS011;58984;51.960;5.582;2024-03-25T13:15:14;10.07;;;6.20;;
71236;SDS011;58984;51.960;5.582;2024-03-25T13:17:40;13.55;;;6.35;;
71236;SDS011;58984;51.960;5.582;2024-03-25T13:20:06;13.57;;;6.55;;
71236;SDS011;58984;51.960;5.582;2024-03-25T13:22:32;15.85;;;5.82;;
71236;SDS011;58984;51.960;5.582;2024-03-25T13:24:58;13.25;;;6.60;;
71236;SDS011;58984;51.960;5.582;2024-03-25T13:27:27;14.32;;;6.15;;
71236;SDS011;58984;51.960;5.582;2024-03-25T13:29:53;13.52;;;5.55;;
71236;SDS011;58984;51.960;5.582;2024-03-25T13:32:19;10.32;;;5.15;;
71236;SDS011;58984;51.960;5.582;2024-03-25T13:34:45;9.80;;;5.30;;
71236;SDS011;58984;51.960;5.582;2024-03-25T13:37:11;9.70;;;5.03;;
71236;SDS011;58984;51.960;5.582;2024-03-25T13:39:37;12.05;;;5.53;;
71236;SDS011;58984;51.960;5.582;2024-03-25T13:42:03;10.40;;;5.53;;
71236;SDS011;58984;51.960;5.582;2024-03-25T13:44:29;11.60;;;5.93;;
71236;SDS011;58984;51.960;5.582;2024-03-25T13:46:55;11.07;;;5.35;;
71236;SDS011;58984;51.960;5.582;2024-03-25T13:49:21;15.90;;;6.15;;
71236;SDS011;58984;51.960;5.582;2024-03-25T13:51:49;10.52;;;5.40;;
71236;SDS011;58984;51.960;5.582;2024-03-25T13:56:46;12.27;;;6.10;;
71236;SDS011;58984;51.960;5.582;2024-03-25T13:59:12;9.48;;;5.30;;
71236;SDS011;58984;51.960;5.582;2024-03-25T14:01:37;9.15;;;5.63;;
71236;SDS011;58984;51.960;5.582;2024-03-25T14:04:05;9.32;;;5.60;;
71236;SDS011;58984;51.960;5.582;2024-03-25T14:06:31;9.88;;;5.57;;
71236;SDS011;58984;51.960;5.582;2024-03-25T14:08:58;9.07;;;5.20;;
71236;SDS011;58984;51.960;5.582;2024-03-25T14:11:24;9.43;;;5.13;;
71236;SDS011;58984;51.960;5.582;2024-03-25T14:13:50;8.02;;;4.90;;
71236;SDS011;58984;51.960;5.582;2024-03-25T14:16:15;8.48;;;4.93;;
71236;SDS011;58984;51.960;5.582;2024-03-25T14:18:42;8.10;;;4.60;;
71236;SDS011;58984;51.960;5.582;2024-03-25T14:21:07;9.02;;;4.45;;
71236;SDS011;58984;51.960;5.582;2024-03-25T14:23:33;7.68;;;4.68;;
71236;SDS011;58984;51.960;5.582;2024-03-25T14:25:59;6.97;;;4.93;;
71236;SDS011;58984;51.960;5.582;2024-03-25T14:28:24;8.98;;;4.90;;
71236;SDS011;58984;51.960;5.582;2024-03-25T14:30:50;6.70;;;4.40;;
71236;SDS011;58984;51.960;5.582;2024-03-25T14:33:16;10.05;;;5.00;;
71236;SDS011;58984;51.960;5.582;2024-03-25T14:35:42;7.55;;;4.47;;
71236;SDS011;58984;51.960;5.582;2024-03-25T14:38:08;6.38;;;4.35;;
71236;SDS011;58984;51.960;5.582;2024-03-25T14:40:37;6.45;;;4.00;;